• Join FlightAware (Why Join?)
  • Login
  • US Flag 
03:15PM EDT


 

Airport Tracker/Info


-or-


 

Live Flight TrackerFlight Track Log ✈ UAL5822 ✈ 26-Apr-2013 ✈ KMHT - KORD

Flight Track Log - Related Links

Times and Time Zones

All times are in EDT time to prevent confusion due to time zone crossing. See the UAL5822 flight status page for this flight to view local times or setup timezone preferences in your user account.

Time Position Orientation Groundspeed Altitude Reporting Facility
EDT Latitude Longitude Course Direction KTS MPH feet Rate Location/Type
07:25AM 42.9500 -71.4500 270° West 157 181 1,000  Level KA90
07:27AM 43.0050 -71.4861 334° Northwest 204 235 3,300 1,920 Climbing Boston Center
07:28AM 43.0472 -71.5650 306° West 218 251 5,500 2,340 Climbing Boston Center
07:29AM 43.0792 -71.6328 303° West 238 274 8,000 2,160 Climbing Boston Center
07:30AM 43.1150 -71.7233 298° West 244 281 9,900 1,260 Climbing Boston Center
07:31AM 42.9501 -72.1458 270° West  Level FlightAware Approximate
07:31AM 43.1158 -71.8372 271° West 278 320 10,600  Level Boston Center
07:32AM 43.1206 -71.9567 273° West 306 352 12,200 1,800 Climbing Boston Center
07:33AM 43.1231 -72.0761 272° West 321 369 14,200 1,800 Climbing Boston Center
07:34AM 43.1275 -72.1956 273° West 321 369 15,800 1,560 Climbing Boston Center
07:35AM 43.1319 -72.3122 273° West 316 364 17,400 1,320 Climbing Boston Center
07:36AM 43.1339 -72.4286 271° West 311 358 18,500 1,200 Climbing Boston Center
07:37AM 43.1361 -72.5483 271° West 311 358 19,900 1,260 Climbing Boston Center
07:38AM 43.1400 -72.6678 273° West 311 358 21,100 1,200 Climbing Boston Center
07:39AM 43.1417 -72.7958 271° West 324 373 22,300 1,200 Climbing Boston Center
07:40AM 43.1456 -72.9211 272° West 329 379 23,500 1,080 Climbing Boston Center
07:41AM 43.1472 -73.0206 271° West 329 379 24,500 1,200 Climbing Boston Center
07:42AM 43.1503 -73.1714 272° West 329 379 25,900 1,200 Climbing Boston Center
07:43AM 43.1517 -73.2994 271° West 329 379 26,900 900 Climbing Boston Center
07:44AM 43.1528 -73.4078 271° West 329 379 27,800 840 Climbing Boston Center
07:45AM 43.1539 -73.5300 271° West 329 379 28,800 1,020 Climbing Boston Center
07:46AM 43.1542 -73.6867 270° West 334 384 30,100 1,080 Climbing Boston Center
07:47AM 43.1569 -73.8261 272° West 334 384 31,000 900 Climbing Boston Center
07:48AM 43.1572 -73.9514 270° West 334 384 32,000 960 Climbing Boston Center
07:49AM 43.1597 -74.0767 272° West 334 384 33,000 960 Climbing Boston Center
07:50AM 43.1600 -74.2078 270° West 334 384 34,000 960 Climbing Boston Center
07:51AM 43.1619 -74.3358 271° West 334 384 35,000 900 Climbing Boston Center
07:52AM 43.1619 -74.4639 270° West 334 384 35,900 480 Climbing Boston Center
07:53AM 43.1639 -74.5892 271° West 334 384 36,000  Climbing Boston Center
07:54AM 43.1631 -74.7317 270° West 350 403 36,000  Level Boston Center
07:55AM 43.1642 -74.8767 271° West 372 428 36,000 -60 Level Boston Center
07:56AM 43.1653 -75.0219 271° West 384 442 35,900  Descending Boston Center
07:57AM 43.1639 -75.1672 269° West 384 442 36,000  Climbing Boston Center
07:58AM 43.1653 -75.2839 271° West 384 442 36,000  Level Boston Center
07:59AM 43.1653 -75.4464 270° West 384 442 36,000  Level Boston Center
08:00AM 43.1656 -75.5944 270° West 384 442 36,000  Level Boston Center
08:01AM 43.1631 -75.7481 269° West 389 448 36,000 -60 Level Boston Center
08:02AM 43.1650 -75.8992 271° West 399 459 35,900  Descending Boston Center
08:04AM 43.1619 -76.2253 269° West 397 457 36,000  Climbing Cleveland Center
08:05AM 43.1608 -76.3706 269° West 397 457 36,000  Level Cleveland Center
08:06AM 43.1600 -76.5158 270° West 391 450 36,000  Level Cleveland Center
08:07AM 43.1611 -76.6694 271° West 391 450 36,000  Level Cleveland Center
08:08AM 43.1575 -76.8178 268° West 391 450 36,000  Level Cleveland Center
08:09AM 43.1583 -76.9686 270° West 391 450 36,000  Level Cleveland Center
08:10AM 43.1586 -77.1167 270° West 396 456 36,000  Level Cleveland Center
08:11AM 43.1564 -77.2533 269° West 396 456 36,000  Level Cleveland Center
08:12AM 43.1564 -77.4014 270° West 396 456 36,000  Level Cleveland Center
08:13AM 43.1519 -77.5467 268° West 396 456 36,000  Level Cleveland Center
08:14AM 43.1517 -77.6947 270° West 396 456 36,000  Level Cleveland Center
08:15AM 43.1508 -77.8400 270° West 396 456 36,000  Level Cleveland Center
08:16AM 43.1481 -77.9853 269° West 391 450 36,000  Level Cleveland Center
08:17AM 43.1469 -78.1333 269° West 391 450 36,000  Level Cleveland Center
08:18AM 43.1439 -78.2786 268° West 386 444 36,000  Level Cleveland Center
08:19AM 43.1425 -78.4236 269° West 386 444 36,000  Level Cleveland Center
08:20AM 43.1367 -78.5689 267° West 386 444 36,000  Level Cleveland Center
08:21AM 43.1328 -78.7142 268° West 386 444 36,000  Level Cleveland Center
08:22AM 43.1311 -78.8622 269° West 386 444 36,000  Level Cleveland Center
08:23AM 43.1247 -79.0044 267° West 386 444 36,000  Level Cleveland Center
08:24AM 43.1167 -79.1500 266° West 390 449 36,000  Level Toronto Center
08:25AM 43.1000 -79.3167 262° West 390 449 36,000  Level Toronto Center
08:26AM 43.1000 -79.4500 270° West 390 449 36,000  Level Toronto Center
08:27AM 43.1000 -79.5833 270° West 380 437 36,000  Level Toronto Center
08:28AM 43.0833 -79.7500 262° West 370 426 36,000  Level Toronto Center
08:29AM 43.0833 -79.8833 270° West 370 426 36,000  Level Toronto Center
08:30AM 43.0833 -80.0167 270° West 370 426 36,000  Level Toronto Center
08:31AM 43.0667 -80.1500 260° West 370 426 36,000  Level Toronto Center
08:32AM 43.0667 -80.3000 270° West 370 426 36,000  Level Toronto Center
08:33AM 43.0667 -80.4333 270° West 370 426 36,000  Level Toronto Center
08:34AM 43.0500 -80.5833 261° West 380 437 36,000  Level Toronto Center
08:35AM 43.0500 -80.7333 270° West 380 437 36,000  Level Toronto Center
08:36AM 43.0333 -80.8833 261° West 380 437 36,000  Level Toronto Center
08:37AM 43.0167 -81.0167 260° West 380 437 36,000  Level Toronto Center
08:38AM 43.0167 -81.1667 270° West 380 437 36,000  Level Toronto Center
08:39AM 43.0167 -81.3000 270° West 380 437 36,000  Level Toronto Center
08:40AM 43.0167 -81.4333 270° West 380 437 36,000  Level Toronto Center
08:41AM 43.0167 -81.6000 270° West 380 437 36,000  Level Toronto Center
08:42AM 43.0167 -81.7333 270° West 380 437 36,000  Level Toronto Center
08:43AM 43.0167 -81.8667 270° West 370 426 36,000  Level Toronto Center
08:44AM 43.0000 -82.0000 260° West 370 426 36,000  Level Toronto Center
08:45AM 43.0000 -82.1333 270° West 370 426 36,000  Level Toronto Center
08:46AM 43.0000 -82.3000 270° West 370 426 36,000  Level Toronto Center
08:47AM 43.0000 -82.4167 270° West 370 426 36,000  Level Toronto Center
08:48AM 43.0000 -82.5667 270° West 360 414 36,000  Level Toronto Center
08:49AM 42.9983 -82.7519 269° West 366 421 36,000  Level Cleveland Center
08:50AM 42.9958 -82.8767 268° West 366 421 36,000  Level Cleveland Center
08:51AM 42.9911 -83.0128 267° West 366 421 36,000  Level Cleveland Center
08:52AM 42.9881 -83.1519 268° West 366 421 36,000  Level Cleveland Center
08:53AM 42.9831 -83.2850 267° West 366 421 36,000 -120 Level Cleveland Center
08:54AM 42.9797 -83.4211 268° West 366 421 35,800 -600 Descending Cleveland Center
08:55AM 42.9742 -83.5542 267° West 360 414 34,800 -1,020 Descending Cleveland Center
08:56AM 42.9689 -83.6789 267° West 349 402 33,800 -960 Descending Cleveland Center
08:57AM 42.9589 -83.8117 264° West 344 396 32,900 -900 Descending Cleveland Center
08:58AM 42.9467 -83.9472 263° West 357 411 32,000 -480 Descending Cleveland Center
08:59AM 42.9342 -84.0883 263° West 368 423 32,000  Level Cleveland Center
09:00AM 42.9175 -84.2264 261° West 368 423 32,000  Level Cleveland Center
09:01AM 42.9022 -84.3786 262° West 368 423 32,000  Level Cleveland Center
09:02AM 42.8947 -84.4856 265° West 374 430 32,000  Level Chicago Center
09:03AM 42.8797 -84.6272 262° West 378 435 32,000  Level Chicago Center
09:04AM 42.8644 -84.7683 262° West 378 435 32,000  Level Chicago Center
09:05AM 42.8500 -84.9100 262° West 378 435 32,000  Level Chicago Center
09:06AM 42.8356 -85.0508 262° West 377 434 32,000  Level Chicago Center
09:07AM 42.8206 -85.1908 262° West 374 430 32,000  Level Chicago Center
09:08AM 42.8044 -85.3308 261° West 374 430 32,000 -360 Level Chicago Center
09:09AM 42.7894 -85.4706 262° West 374 430 31,300 -1,620 Descending Chicago Center
09:10AM 42.7625 -85.6347 257° West 370 426 28,700 -2,280 Descending Chicago Center
09:11AM 42.7361 -85.7786 256° West 382 440 26,700 -2,040 Descending Chicago Center
09:12AM 42.7092 -85.9278 256° West 397 457 24,500 -2,040 Descending Chicago Center
09:13AM 42.6814 -86.0756 256° West 401 461 22,500 -2,040 Descending Chicago Center
09:14AM 42.6553 -86.2222 256° West 399 459 20,400 -1,560 Descending Chicago Center
09:15AM 42.6283 -86.3642 256° West 390 449 19,400 -840 Descending Chicago Center
09:16AM 42.6011 -86.5086 256° West 394 453 18,700 -1,140 Descending Chicago Center
09:17AM 42.5742 -86.6494 255° West 389 448 17,100 -2,160 Descending Chicago Center
09:18AM 42.5389 -86.8092 253° West 371 427 14,300 -2,340 Descending Chicago Center
09:20AM 42.5039 -86.9344 249° West 359 413 12,300 -1,920 Descending Chicago Center
09:21AM 42.4706 -87.0522 249° West 338 389 10,400 -1,140 Descending Chicago Center
09:22AM 42.4406 -87.1661 250° West 323 372 10,000 -660 Descending Chicago Center
09:23AM 42.4139 -87.2594 249° West 270 311 9,100 -540 Descending Chicago Center
09:24AM 42.3900 -87.3506 250° West 261 300 9,000 -480 Descending Chicago Center
09:25AM 42.3492 -87.4467 240° Southwest 272 313 8,200 -960 Descending Chicago Center
09:26AM 42.3081 -87.5278 236° Southwest 265 305 7,100 -600 Descending Chicago Center
09:27AM 42.2664 -87.6014 233° Southwest 251 289 7,000 -600 Descending Chicago Center
09:28AM 42.2014 -87.6728 219° Southwest 253 291 5,900 -1,140 Descending Chicago Center
09:29AM 42.1492 -87.7297 219° Southwest 244 281 4,700 -1,200 Descending Chicago Center
09:30AM 42.1039 -87.7817 220° Southwest 225 259 3,500 -900 Descending Chicago Center
09:31AM 42.0625 -87.8258 218° Southwest 208 239 2,900 -960 Descending Chicago Center
09:32AM 42.0333 -87.8667 226° Southwest 129 148 1,600 -1,020 Descending Chicago TRACON
09:33AM 42.0000 -87.8833 200° South 128 147 900 -720 Descending Chicago TRACON
09:35AM 41.9817 -87.9067 217° Southwest  Level Estimated